createdAt,value
2017-09-29T00:00:23.334Z,0
2017-09-29T00:01:31.995Z,0
2017-09-29T00:02:40.655Z,0
2017-09-29T00:03:49.931Z,0
2017-09-29T00:04:58.895Z,0
2017-09-29T00:06:08.188Z,0
2017-09-29T00:07:17.487Z,0
2017-09-29T00:08:26.764Z,0
2017-09-29T00:09:35.728Z,0
2017-09-29T00:10:44.704Z,0
2017-09-29T00:11:53.356Z,0
2017-09-29T00:13:02.639Z,0
2017-09-29T00:14:11.608Z,0
2017-09-29T00:15:20.577Z,0
2017-09-29T00:16:29.915Z,0
2017-09-29T00:17:38.888Z,0
2017-09-29T00:18:48.165Z,0
2017-09-29T00:19:57.137Z,0
2017-09-29T00:21:05.782Z,0
2017-09-29T00:22:14.743Z,0
2017-09-29T00:23:23.719Z,0
2017-09-29T00:24:32.368Z,0
2017-09-29T00:25:41.957Z,0
2017-09-29T00:26:51.252Z,0
2017-09-29T00:28:00.891Z,0
2017-09-29T00:29:09.546Z,0
2017-09-29T00:30:18.505Z,0
2017-09-29T00:31:27.484Z,0
2017-09-29T00:32:36.452Z,0
2017-09-29T00:33:45.123Z,0
2017-09-29T00:34:54.091Z,0
2017-09-29T00:36:03.081Z,0
2017-09-29T00:37:12.367Z,0
2017-09-29T00:38:21.340Z,0
2017-09-29T00:39:30.615Z,0
2017-09-29T00:40:40.215Z,0
2017-09-29T00:41:49.182Z,0
2017-09-29T00:42:58.475Z,0
2017-09-29T00:44:07.503Z,0
2017-09-29T00:45:16.789Z,0
2017-09-29T00:46:25.759Z,0
2017-09-29T00:47:34.719Z,0
2017-09-29T00:48:43.714Z,0
2017-09-29T00:49:52.960Z,0
2017-09-29T00:51:02.565Z,0
2017-09-29T00:52:12.166Z,0
2017-09-29T00:53:21.514Z,0
2017-09-29T00:54:30.809Z,0
2017-09-29T00:55:40.084Z,0
2017-09-29T00:56:49.359Z,0
2017-09-29T00:57:58.693Z,0
2017-09-29T00:59:07.344Z,0
2017-09-29T01:00:16.628Z,0
2017-09-29T01:01:25.926Z,0
2017-09-29T01:02:34.583Z,0
2017-09-29T01:03:43.541Z,0
2017-09-29T01:04:53.141Z,0
2017-09-29T01:06:02.415Z,0
2017-09-29T01:07:11.382Z,0
2017-09-29T01:08:20.339Z,0
2017-09-29T01:09:29.997Z,0
2017-09-29T01:10:38.659Z,0
2017-09-29T01:11:47.618Z,0
2017-09-29T01:12:56.282Z,0
2017-09-29T01:14:05.271Z,0
2017-09-29T01:15:13.909Z,0
2017-09-29T01:16:22.895Z,0
2017-09-29T01:17:31.545Z,0
2017-09-29T01:18:40.858Z,0
2017-09-29T01:19:50.132Z,0
2017-09-29T01:20:59.107Z,0
2017-09-29T01:22:08.398Z,0
2017-09-29T01:23:17.673Z,0
2017-09-29T01:24:26.639Z,0
2017-09-29T01:25:36.234Z,0
2017-09-29T01:26:45.546Z,0
2017-09-29T01:27:54.531Z,0
2017-09-29T01:29:03.523Z,0
2017-09-29T01:30:12.804Z,0
2017-09-29T01:31:21.466Z,0
2017-09-29T01:32:30.428Z,0
2017-09-29T01:33:39.080Z,0
2017-09-29T01:34:48.060Z,0
2017-09-29T01:35:56.712Z,0
2017-09-29T01:37:06.637Z,0
2017-09-29T01:38:15.290Z,0
2017-09-29T01:39:24.607Z,0
2017-09-29T01:40:33.895Z,0
2017-09-29T01:41:43.482Z,0
2017-09-29T01:42:52.800Z,0
2017-09-29T01:44:01.768Z,0
2017-09-29T01:45:10.424Z,0
2017-09-29T01:46:19.385Z,0
2017-09-29T01:47:29.306Z,0
2017-09-29T01:48:37.987Z,0
2017-09-29T01:49:46.646Z,0
2017-09-29T01:50:55.616Z,0
2017-09-29T01:52:04.282Z,0
2017-09-29T01:53:13.574Z,0
2017-09-29T01:54:23.163Z,0
2017-09-29T01:55:32.131Z,0
2017-09-29T01:56:40.786Z,0
2017-09-29T01:57:50.378Z,0
2017-09-29T01:58:59.019Z,0
2017-09-29T02:00:08.630Z,0
2017-09-29T02:01:17.915Z,0
2017-09-29T02:02:26.896Z,0
2017-09-29T02:03:35.532Z,0
2017-09-29T02:04:44.502Z,0
2017-09-29T02:05:53.777Z,0
2017-09-29T02:07:03.058Z,0
2017-09-29T02:08:12.020Z,0
2017-09-29T02:09:20.983Z,0
2017-09-29T02:10:29.952Z,0
2017-09-29T02:11:39.228Z,0
2017-09-29T02:12:48.551Z,0
2017-09-29T02:13:57.828Z,0
2017-09-29T02:15:07.108Z,0
2017-09-29T02:16:16.377Z,0
2017-09-29T02:17:25.654Z,0
2017-09-29T02:18:34.632Z,0
2017-09-29T02:19:43.281Z,0
2017-09-29T02:20:52.868Z,0
2017-09-29T02:22:01.827Z,0
2017-09-29T02:23:11.420Z,0
2017-09-29T02:24:20.057Z,0
2017-09-29T02:25:28.703Z,0
2017-09-29T02:26:37.683Z,0
2017-09-29T02:27:46.966Z,0
2017-09-29T02:28:55.609Z,0
2017-09-29T02:30:05.220Z,0
2017-09-29T02:31:14.503Z,0
2017-09-29T02:32:23.829Z,0
2017-09-29T02:33:33.119Z,0
2017-09-29T02:34:41.769Z,0
2017-09-29T02:35:50.408Z,0
2017-09-29T02:36:59.373Z,0
2017-09-29T02:38:08.034Z,0
2017-09-29T02:39:17.020Z,0
2017-09-29T02:40:26.330Z,0
2017-09-29T02:41:35.046Z,0
2017-09-29T02:42:44.635Z,0
2017-09-29T02:43:54.230Z,0
2017-09-29T02:45:03.236Z,0
2017-09-29T02:46:12.830Z,0
2017-09-29T02:47:21.798Z,0
2017-09-29T02:48:30.768Z,0
2017-09-29T02:49:39.733Z,0
2017-09-29T02:50:48.728Z,0
2017-09-29T02:51:58.012Z,0
2017-09-29T02:53:06.670Z,0
2017-09-29T02:54:15.636Z,0
2017-09-29T02:55:24.276Z,0
2017-09-29T02:56:33.261Z,0
2017-09-29T02:57:42.222Z,0
2017-09-29T02:58:50.876Z,0
2017-09-29T03:00:00.147Z,0
2017-09-29T03:01:09.422Z,0
2017-09-29T03:02:18.703Z,0
2017-09-29T03:03:27.669Z,0
2017-09-29T03:04:36.329Z,0
2017-09-29T03:05:44.980Z,0
2017-09-29T03:06:53.956Z,0
2017-09-29T03:08:02.607Z,0
2017-09-29T03:09:11.884Z,0
2017-09-29T03:10:20.539Z,0
2017-09-29T03:11:29.494Z,0
2017-09-29T03:12:39.133Z,0
2017-09-29T03:13:48.106Z,0
2017-09-29T03:14:56.750Z,0
2017-09-29T03:16:06.027Z,0
2017-09-29T03:17:15.308Z,0
2017-09-29T03:18:24.903Z,0
2017-09-29T03:19:34.506Z,0
2017-09-29T03:20:43.529Z,0
2017-09-29T03:21:52.814Z,0
2017-09-29T03:23:01.458Z,0
2017-09-29T03:24:10.749Z,0
2017-09-29T03:25:19.704Z,0
2017-09-29T03:26:28.800Z,0
2017-09-29T03:27:37.838Z,0
2017-09-29T03:28:46.483Z,0
2017-09-29T03:29:55.444Z,0
2017-09-29T03:31:04.745Z,0
2017-09-29T03:32:14.329Z,0
2017-09-29T03:33:23.327Z,0
2017-09-29T03:34:32.915Z,0
2017-09-29T03:35:41.877Z,0
2017-09-29T03:36:50.847Z,0
2017-09-29T03:37:59.820Z,0
2017-09-29T03:39:08.820Z,0
2017-09-29T03:40:17.471Z,0
2017-09-29T03:41:27.086Z,0
2017-09-29T03:42:36.690Z,0
2017-09-29T03:43:46.288Z,0
2017-09-29T03:44:54.953Z,0
2017-09-29T03:46:03.611Z,0
2017-09-29T03:47:12.250Z,0
2017-09-29T03:48:21.211Z,0
2017-09-29T03:49:30.658Z,0
2017-09-29T03:50:39.945Z,0
2017-09-29T03:51:49.599Z,0
2017-09-29T03:52:58.252Z,0
2017-09-29T03:54:07.547Z,0
2017-09-29T03:55:16.198Z,0
2017-09-29T03:56:25.821Z,0
2017-09-29T03:57:34.789Z,0
2017-09-29T03:58:43.750Z,0
2017-09-29T03:59:52.711Z,0
2017-09-29T04:01:01.455Z,0
2017-09-29T04:02:10.425Z,0
2017-09-29T04:03:19.705Z,0
2017-09-29T04:04:28.986Z,0
2017-09-29T04:05:37.623Z,0
2017-09-29T04:06:46.588Z,0
2017-09-29T04:07:56.191Z,0
2017-09-29T04:09:05.483Z,0
2017-09-29T04:10:14.459Z,0
2017-09-29T04:11:23.130Z,0
2017-09-29T04:12:32.405Z,0
2017-09-29T04:13:41.372Z,0
2017-09-29T04:14:50.339Z,0
2017-09-29T04:15:59.631Z,0
2017-09-29T04:17:08.300Z,0
2017-09-29T04:18:17.574Z,0
2017-09-29T04:19:26.238Z,0
2017-09-29T04:20:35.520Z,0
2017-09-29T04:21:44.494Z,0
2017-09-29T04:22:53.784Z,0
2017-09-29T04:24:03.063Z,0
2017-09-29T04:25:12.347Z,0
2017-09-29T04:26:21.628Z,0
2017-09-29T04:27:31.261Z,0
2017-09-29T04:28:40.540Z,0
2017-09-29T04:29:49.500Z,0
2017-09-29T04:30:58.813Z,0
2017-09-29T04:32:08.096Z,0
2017-09-29T04:33:16.746Z,0
2017-09-29T04:34:26.036Z,0
2017-09-29T04:35:34.996Z,0
2017-09-29T04:36:43.647Z,0
2017-09-29T04:37:52.623Z,0
2017-09-29T04:39:02.234Z,0
2017-09-29T04:40:11.537Z,0
2017-09-29T04:41:20.517Z,0
2017-09-29T04:42:29.490Z,0
2017-09-29T04:43:38.159Z,0
2017-09-29T04:44:47.131Z,0
2017-09-29T04:45:55.880Z,0
2017-09-29T04:47:04.846Z,0
2017-09-29T04:48:13.848Z,0
2017-09-29T04:49:22.507Z,0
2017-09-29T04:50:31.169Z,0
2017-09-29T04:51:40.122Z,0
2017-09-29T04:52:49.089Z,0
2017-09-29T04:53:58.066Z,0
2017-09-29T04:55:07.349Z,0
2017-09-29T04:56:17.268Z,0
2017-09-29T04:57:25.908Z,0
2017-09-29T04:58:34.569Z,0
2017-09-29T04:59:43.238Z,0
2017-09-29T05:00:52.530Z,0
2017-09-29T05:02:01.490Z,0
2017-09-29T05:03:10.478Z,0
2017-09-29T05:04:19.145Z,0
2017-09-29T05:05:28.103Z,0
2017-09-29T05:06:37.391Z,0
2017-09-29T05:07:46.031Z,4
2017-09-29T05:08:54.678Z,4
2017-09-29T05:10:03.968Z,0
2017-09-29T05:11:12.960Z,0
2017-09-29T05:12:22.242Z,4
2017-09-29T05:13:32.143Z,4
2017-09-29T05:14:41.125Z,4
2017-09-29T05:15:49.782Z,8
2017-09-29T05:16:58.772Z,8
2017-09-29T05:18:08.073Z,12
2017-09-29T05:19:17.679Z,12
2017-09-29T05:20:26.968Z,12
2017-09-29T05:21:35.606Z,16
2017-09-29T05:22:44.272Z,16
2017-09-29T05:23:53.247Z,20
2017-09-29T05:25:02.238Z,20
2017-09-29T05:26:10.897Z,20
2017-09-29T05:27:20.179Z,24
2017-09-29T05:28:29.158Z,32
2017-09-29T05:29:38.493Z,40
2017-09-29T05:30:47.149Z,44
2017-09-29T05:31:57.384Z,48
2017-09-29T05:33:06.731Z,52
2017-09-29T05:34:15.402Z,60
2017-09-29T05:35:24.378Z,64
2017-09-29T05:36:33.026Z,72
2017-09-29T05:37:41.714Z,84
2017-09-29T05:38:51.347Z,92
2017-09-29T05:40:00.719Z,100
2017-09-29T05:41:09.704Z,112
2017-09-29T05:42:18.704Z,116
2017-09-29T05:43:27.932Z,128
2017-09-29T05:44:36.910Z,136
2017-09-29T05:45:46.515Z,144
2017-09-29T05:46:55.189Z,156
2017-09-29T05:48:04.472Z,164
2017-09-29T05:49:13.463Z,172
2017-09-29T05:50:22.451Z,184
2017-09-29T05:51:31.803Z,200
2017-09-29T05:52:40.774Z,220
2017-09-29T05:53:50.383Z,236
2017-09-29T05:54:59.376Z,256
2017-09-29T05:56:08.034Z,268
2017-09-29T05:57:17.043Z,284
2017-09-29T05:58:26.326Z,284
2017-09-29T05:59:35.638Z,288
2017-09-29T06:00:44.624Z,296
2017-09-29T06:01:53.338Z,296
2017-09-29T06:03:02.299Z,300
2017-09-29T06:04:11.268Z,324
2017-09-29T06:05:20.576Z,332
2017-09-29T06:06:29.546Z,340
2017-09-29T06:07:38.858Z,356
2017-09-29T06:08:48.162Z,372
2017-09-29T06:09:57.464Z,392
2017-09-29T06:11:06.125Z,424
2017-09-29T06:12:15.092Z,412
2017-09-29T06:13:23.752Z,372
2017-09-29T06:14:32.718Z,360
2017-09-29T06:15:42.012Z,380
2017-09-29T06:16:51.003Z,464
2017-09-29T06:17:59.968Z,584
2017-09-29T06:19:09.262Z,676
2017-09-29T06:20:18.891Z,756
2017-09-29T06:21:27.864Z,868
2017-09-29T06:22:36.638Z,944
2017-09-29T06:23:45.648Z,1012
2017-09-29T06:24:54.614Z,1072
2017-09-29T06:26:03.584Z,1120
2017-09-29T06:27:13.198Z,1156
2017-09-29T06:28:22.482Z,1184
2017-09-29T06:29:31.531Z,1216
2017-09-29T06:30:40.266Z,1240
2017-09-29T06:31:49.340Z,1260
2017-09-29T06:32:58.307Z,1284
2017-09-29T06:34:07.655Z,1292
2017-09-29T06:35:16.331Z,1312
2017-09-29T06:36:25.406Z,1320
2017-09-29T06:37:34.867Z,1336
2017-09-29T06:38:44.826Z,1344
2017-09-29T06:39:53.849Z,1352
2017-09-29T06:41:03.140Z,1356
2017-09-29T06:42:12.522Z,1348
2017-09-29T06:43:21.563Z,1336
2017-09-29T06:44:31.067Z,1316
2017-09-29T06:45:40.046Z,1296
2017-09-29T06:46:49.016Z,1272
2017-09-29T06:47:57.978Z,1292
2017-09-29T06:49:07.573Z,1328
2017-09-29T06:50:16.550Z,1352
2017-09-29T06:51:25.526Z,1372
2017-09-29T06:52:34.821Z,1356
2017-09-29T06:53:43.787Z,1348
2017-09-29T06:54:52.757Z,1304
2017-09-29T06:56:03.344Z,1252
2017-09-29T06:57:14.203Z,1208
2017-09-29T06:58:23.606Z,1164
2017-09-29T06:59:33.299Z,1152
2017-09-29T07:00:42.615Z,1172
2017-09-29T07:01:51.983Z,1208
2017-09-29T07:03:02.317Z,1236
2017-09-29T07:04:12.012Z,1296
2017-09-29T07:05:21.318Z,1368
2017-09-29T07:06:30.282Z,1424
2017-09-29T07:07:38.955Z,1448
2017-09-29T07:08:49.292Z,1444
2017-09-29T07:09:59.292Z,1440
2017-09-29T07:11:08.892Z,1428
2017-09-29T07:12:18.210Z,1400
2017-09-29T07:13:26.868Z,1396
2017-09-29T07:14:35.541Z,1404
2017-09-29T07:15:44.526Z,1372
2017-09-29T07:16:53.262Z,1336
2017-09-29T07:18:02.543Z,1316
2017-09-29T07:19:11.232Z,1296
2017-09-29T07:20:20.829Z,1272
2017-09-29T07:21:29.813Z,1248
2017-09-29T07:22:38.878Z,1220
2017-09-29T07:23:48.165Z,1192
2017-09-29T07:24:57.130Z,1140
2017-09-29T07:26:06.418Z,1084
2017-09-29T07:27:15.730Z,1076
2017-09-29T07:28:24.798Z,1008
2017-09-29T07:29:34.542Z,980
2017-09-29T07:30:44.465Z,988
2017-09-29T07:31:53.452Z,1012
2017-09-29T07:33:03.322Z,1048
2017-09-29T07:34:12.630Z,1120
2017-09-29T07:35:22.309Z,1152
2017-09-29T07:36:32.227Z,1112
2017-09-29T07:37:41.537Z,1076
2017-09-29T07:38:51.249Z,1124
2017-09-29T07:40:00.556Z,1136
2017-09-29T07:41:10.659Z,1176
2017-09-29T07:42:19.407Z,1180
2017-09-29T07:43:28.170Z,1160
2017-09-29T07:44:36.855Z,1164
2017-09-29T07:45:46.660Z,1184
2017-09-29T07:46:57.125Z,1200
2017-09-29T07:48:05.862Z,1196
2017-09-29T07:49:15.152Z,1188
2017-09-29T07:50:25.195Z,1180
2017-09-29T07:51:34.204Z,1176
2017-09-29T07:52:43.601Z,1164
2017-09-29T07:53:52.881Z,1164
2017-09-29T07:55:01.863Z,1120
2017-09-29T07:56:10.865Z,1092
2017-09-29T07:57:19.853Z,1048
2017-09-29T07:58:28.507Z,1000
2017-09-29T07:59:37.479Z,964
2017-09-29T08:00:46.132Z,972
2017-09-29T08:01:55.110Z,952
2017-09-29T08:03:03.766Z,972
2017-09-29T08:04:12.757Z,976
2017-09-29T08:05:22.048Z,972
2017-09-29T08:06:30.751Z,932
2017-09-29T08:07:40.362Z,900
2017-09-29T08:08:49.029Z,932
2017-09-29T08:10:01.162Z,940
2017-09-29T08:11:11.843Z,892
2017-09-29T08:12:21.141Z,844
2017-09-29T08:13:30.102Z,792
2017-09-29T08:14:39.725Z,792
2017-09-29T08:15:48.382Z,804
2017-09-29T08:16:57.670Z,824
2017-09-29T08:18:06.322Z,820
2017-09-29T08:19:14.991Z,812
2017-09-29T08:20:23.943Z,796
2017-09-29T08:21:32.942Z,816
2017-09-29T08:22:42.061Z,824
2017-09-29T08:23:51.104Z,828
2017-09-29T08:25:01.306Z,840
2017-09-29T08:26:10.442Z,840
2017-09-29T08:27:19.658Z,856
2017-09-29T08:28:29.456Z,884
2017-09-29T08:29:38.432Z,904
2017-09-29T08:30:47.401Z,948
2017-09-29T08:31:56.175Z,1004
2017-09-29T08:33:05.143Z,996
2017-09-29T08:34:14.428Z,996
2017-09-29T08:35:24.187Z,996
2017-09-29T08:36:33.539Z,1008
2017-09-29T08:37:42.498Z,1024
2017-09-29T08:38:52.046Z,1068
2017-09-29T08:40:02.538Z,1152
2017-09-29T08:41:11.823Z,1200
2017-09-29T08:42:21.760Z,1232
2017-09-29T08:43:30.733Z,1164
2017-09-29T08:44:40.980Z,1032
2017-09-29T08:45:49.948Z,1092
2017-09-29T08:46:58.961Z,1256
2017-09-29T08:48:08.238Z,1504
2017-09-29T08:49:17.515Z,1740
2017-09-29T08:50:26.486Z,1608
2017-09-29T08:51:35.471Z,1336
2017-09-29T08:52:45.076Z,1208
2017-09-29T08:53:54.038Z,1176
2017-09-29T08:55:02.696Z,1248
2017-09-29T08:56:11.355Z,1448
2017-09-29T08:57:20.326Z,1636
2017-09-29T08:58:29.298Z,1512
2017-09-29T08:59:38.296Z,1596
2017-09-29T09:00:47.585Z,1568
2017-09-29T09:01:56.555Z,1360
2017-09-29T09:03:05.866Z,1256
2017-09-29T09:04:15.153Z,1184
2017-09-29T09:05:24.745Z,1272
2017-09-29T09:06:34.394Z,1204
2017-09-29T09:07:44.006Z,1148
2017-09-29T09:08:53.291Z,1116
2017-09-29T09:10:01.935Z,1120
2017-09-29T09:11:11.556Z,1144
2017-09-29T09:12:20.568Z,1164
2017-09-29T09:13:29.249Z,1188
2017-09-29T09:14:38.245Z,1200
2017-09-29T09:15:47.204Z,1232
2017-09-29T09:16:56.177Z,1244
2017-09-29T09:18:04.878Z,1264
2017-09-29T09:19:13.860Z,1260
2017-09-29T09:20:23.473Z,1260
2017-09-29T09:21:32.441Z,1280
2017-09-29T09:22:41.421Z,1292
2017-09-29T09:23:50.378Z,1340
2017-09-29T09:24:59.979Z,1328
2017-09-29T09:26:08.622Z,1364
2017-09-29T09:27:18.217Z,1388
2017-09-29T09:28:27.543Z,1452
2017-09-29T09:29:37.133Z,1476
2017-09-29T09:30:46.419Z,1484
2017-09-29T09:31:55.455Z,1484
2017-09-29T09:33:04.744Z,1504
2017-09-29T09:34:14.088Z,1528
2017-09-29T09:35:23.407Z,1532
2017-09-29T09:36:32.699Z,1524
2017-09-29T09:37:42.308Z,1480
2017-09-29T09:38:51.918Z,1428
2017-09-29T09:40:01.217Z,1416
2017-09-29T09:41:10.223Z,1428
2017-09-29T09:42:19.195Z,1448
2017-09-29T09:43:28.202Z,1432
2017-09-29T09:44:37.193Z,1428
2017-09-29T09:45:46.834Z,1444
2017-09-29T09:46:55.880Z,1468
2017-09-29T09:48:05.125Z,1492
2017-09-29T09:49:14.132Z,1976
2017-09-29T09:50:23.130Z,2344
2017-09-29T09:51:32.509Z,2280
2017-09-29T09:52:41.870Z,2168
2017-09-29T09:53:51.194Z,1648
2017-09-29T09:55:01.105Z,1344
2017-09-29T09:56:10.407Z,1356
2017-09-29T09:57:19.710Z,1388
2017-09-29T09:58:28.700Z,1260
2017-09-29T09:59:37.691Z,1240
2017-09-29T10:00:47.293Z,1264
2017-09-29T10:01:57.606Z,1360
2017-09-29T10:03:07.392Z,1404
2017-09-29T10:04:16.722Z,1424
2017-09-29T10:05:25.790Z,1420
2017-09-29T10:06:34.604Z,1384
2017-09-29T10:07:43.614Z,1364
2017-09-29T10:08:53.170Z,1420
2017-09-29T10:10:02.245Z,1440
2017-09-29T10:11:43.830Z,1460
2017-09-29T10:12:53.134Z,1456
2017-09-29T10:14:02.072Z,1464
2017-09-29T10:15:11.659Z,1512
2017-09-29T10:16:20.644Z,1516
2017-09-29T10:17:29.628Z,1528
2017-09-29T10:18:38.961Z,1420
2017-09-29T10:19:48.472Z,1428
2017-09-29T10:20:57.452Z,1448
2017-09-29T10:22:07.101Z,1468
2017-09-29T10:23:18.462Z,1504
2017-09-29T10:24:27.983Z,1504
2017-09-29T10:25:36.636Z,1512
2017-09-29T10:26:45.793Z,1520
2017-09-29T10:27:56.023Z,1520
2017-09-29T10:29:05.718Z,1516
2017-09-29T10:30:15.442Z,1540
2017-09-29T10:31:25.571Z,1544
2017-09-29T10:32:35.766Z,1668
2017-09-29T10:33:45.065Z,1592
2017-09-29T10:34:54.354Z,1468
2017-09-29T10:36:04.154Z,1432
2017-09-29T10:37:13.308Z,1408
2017-09-29T10:38:22.592Z,1380
2017-09-29T10:39:32.061Z,1364
2017-09-29T10:40:41.672Z,1348
2017-09-29T10:41:50.728Z,1356
2017-09-29T10:43:00.153Z,1348
2017-09-29T10:44:09.748Z,1360
2017-09-29T10:45:19.213Z,1408
2017-09-29T10:46:28.674Z,1452
2017-09-29T10:47:37.360Z,1492
2017-09-29T10:48:46.348Z,1532
2017-09-29T10:49:55.339Z,1528
2017-09-29T10:51:04.632Z,1540
2017-09-29T10:52:13.603Z,1584
2017-09-29T10:53:24.661Z,1636
2017-09-29T10:54:35.224Z,1680
2017-09-29T10:55:44.559Z,1644
2017-09-29T10:56:54.823Z,1620
2017-09-29T10:58:03.919Z,1628
2017-09-29T10:59:13.376Z,1612
2017-09-29T11:00:22.099Z,1576
2017-09-29T11:01:31.282Z,1508
2017-09-29T11:02:40.739Z,1476
2017-09-29T11:03:51.379Z,1448
2017-09-29T11:05:00.748Z,1456
2017-09-29T11:06:09.711Z,1320
2017-09-29T11:07:18.687Z,1268
2017-09-29T11:08:27.671Z,1268
2017-09-29T11:09:36.806Z,1216
2017-09-29T11:10:45.801Z,1160
2017-09-29T11:11:54.453Z,1108
2017-09-29T11:13:03.121Z,1136
2017-09-29T11:14:12.108Z,1164
2017-09-29T11:15:21.091Z,1216
2017-09-29T11:16:30.080Z,1276
2017-09-29T11:17:38.805Z,1332
2017-09-29T11:18:47.780Z,1348
2017-09-29T11:19:56.771Z,1368
2017-09-29T11:21:05.845Z,1368
2017-09-29T11:22:14.830Z,1404
2017-09-29T11:23:23.809Z,1416
2017-09-29T11:24:32.478Z,1384
2017-09-29T11:25:41.151Z,1332
2017-09-29T11:26:50.122Z,1280
2017-09-29T11:27:59.461Z,1244
2017-09-29T11:29:08.120Z,1216
2017-09-29T11:30:17.430Z,1188
2017-09-29T11:31:26.791Z,1228
2017-09-29T11:32:35.921Z,1276
2017-09-29T11:33:45.204Z,1240
2017-09-29T11:34:54.496Z,1192
2017-09-29T11:36:03.796Z,1172
2017-09-29T11:37:12.787Z,1144
2017-09-29T11:38:21.786Z,1144
2017-09-29T11:39:31.395Z,1200
2017-09-29T11:40:40.052Z,1232
2017-09-29T11:41:48.721Z,1232
2017-09-29T11:42:57.391Z,1212
2017-09-29T11:44:06.407Z,1168
2017-09-29T11:45:16.014Z,1104
2017-09-29T11:46:24.992Z,1052
2017-09-29T11:47:33.667Z,1032
2017-09-29T11:48:42.960Z,1024
2017-09-29T11:49:52.426Z,1020
2017-09-29T11:51:01.727Z,1024
2017-09-29T11:52:11.018Z,1020
2017-09-29T11:53:20.012Z,1020
2017-09-29T11:54:29.313Z,1020
2017-09-29T11:55:39.089Z,1016
2017-09-29T11:56:48.079Z,1024
2017-09-29T11:57:57.391Z,1036
2017-09-29T11:59:06.696Z,1052
2017-09-29T12:00:16.018Z,1060
2017-09-29T12:01:25.087Z,1076
2017-09-29T12:02:33.748Z,1112
2017-09-29T12:03:43.063Z,1148
2017-09-29T12:04:51.742Z,1188
2017-09-29T12:06:01.044Z,1224
2017-09-29T12:07:09.865Z,1264
2017-09-29T12:08:18.884Z,1304
2017-09-29T12:09:28.585Z,1340
2017-09-29T12:10:37.591Z,1376
2017-09-29T12:11:46.276Z,1416
2017-09-29T12:12:55.405Z,1464
2017-09-29T12:14:05.021Z,1512
2017-09-29T12:15:14.362Z,1560
2017-09-29T12:16:23.693Z,1616
2017-09-29T12:17:33.000Z,1652
2017-09-29T12:18:42.142Z,1692
2017-09-29T12:19:51.155Z,1728
2017-09-29T12:20:59.833Z,1760
2017-09-29T12:22:08.498Z,1796
2017-09-29T12:23:18.108Z,1812
2017-09-29T12:24:27.099Z,1828
2017-09-29T12:25:36.430Z,1852
2017-09-29T12:26:45.098Z,1868
2017-09-29T12:27:54.162Z,1868
2017-09-29T12:29:02.846Z,1884
2017-09-29T12:30:12.244Z,1884
2017-09-29T12:31:20.926Z,1876
2017-09-29T12:32:30.560Z,1860
2017-09-29T12:33:39.292Z,1848
2017-09-29T12:34:47.980Z,1824
2017-09-29T12:35:56.817Z,1804
2017-09-29T12:37:05.818Z,1792
2017-09-29T12:38:14.490Z,1780
2017-09-29T12:39:23.485Z,1776
2017-09-29T12:40:32.811Z,1776
2017-09-29T12:41:42.586Z,1780
2017-09-29T12:42:51.801Z,1792
2017-09-29T12:44:01.106Z,1808
2017-09-29T12:46:19.336Z,1844
2017-09-29T12:47:28.157Z,1852
2017-09-29T12:48:37.158Z,1864
2017-09-29T12:49:46.525Z,1872
2017-09-29T12:50:55.251Z,1888
2017-09-29T12:52:04.552Z,1892
2017-09-29T12:53:13.873Z,1900
2017-09-29T12:54:23.482Z,1900
2017-09-29T12:55:32.459Z,1904
2017-09-29T12:56:42.393Z,1916
2017-09-29T12:57:54.683Z,1928
2017-09-29T12:59:03.768Z,1932
2017-09-29T13:00:13.422Z,1948
2017-09-29T13:01:22.409Z,1960
2017-09-29T13:02:31.391Z,1964
2017-09-29T13:03:40.072Z,1968
2017-09-29T13:04:49.067Z,1968
2017-09-29T13:05:58.078Z,1976
2017-09-29T13:07:07.382Z,1984
2017-09-29T13:08:16.411Z,1984
2017-09-29T13:09:25.778Z,1988
2017-09-29T13:10:34.920Z,1996
2017-09-29T13:11:43.996Z,2000
2017-09-29T13:12:53.686Z,1996
2017-09-29T13:14:03.305Z,1996
2017-09-29T13:15:11.995Z,1980
2017-09-29T13:16:20.831Z,1976
2017-09-29T13:17:29.825Z,1960
2017-09-29T13:18:38.515Z,1936
2017-09-29T13:19:47.507Z,1920
2017-09-29T13:20:56.516Z,1888
2017-09-29T13:22:05.542Z,1852
2017-09-29T13:23:14.550Z,1816
2017-09-29T13:24:23.241Z,1776
2017-09-29T13:25:32.856Z,1732
2017-09-29T13:26:42.174Z,1672
2017-09-29T13:27:51.652Z,1600
2017-09-29T13:29:00.668Z,1548
2017-09-29T13:30:09.409Z,1492
2017-09-29T13:31:18.090Z,1440
2017-09-29T13:32:27.727Z,1388
2017-09-29T13:33:37.187Z,1352
2017-09-29T13:34:46.485Z,1324
2017-09-29T13:35:55.474Z,1304
2017-09-29T13:37:04.469Z,1288
2017-09-29T13:38:13.779Z,1288
2017-09-29T13:39:23.548Z,1288
2017-09-29T13:40:32.494Z,1296
2017-09-29T13:41:41.166Z,1308
2017-09-29T13:42:49.838Z,1320
2017-09-29T13:43:58.577Z,1336
2017-09-29T13:45:07.991Z,1352
2017-09-29T13:46:16.683Z,1368
2017-09-29T13:47:26.291Z,1380
2017-09-29T13:48:35.917Z,1392
2017-09-29T13:49:44.948Z,1400
2017-09-29T13:50:54.468Z,1408
2017-09-29T13:52:03.471Z,1400
2017-09-29T13:53:12.776Z,1404
2017-09-29T13:54:21.774Z,1412
2017-09-29T13:55:31.105Z,1416
2017-09-29T13:56:40.573Z,1408
2017-09-29T13:57:49.313Z,1392
2017-09-29T13:58:58.349Z,1328
2017-09-29T14:00:07.663Z,1320
2017-09-29T14:01:16.674Z,1312
2017-09-29T14:02:26.121Z,1316
2017-09-29T14:03:35.428Z,1296
2017-09-29T14:04:44.753Z,1312
2017-09-29T14:05:53.466Z,1316
2017-09-29T14:07:02.466Z,1328
2017-09-29T14:08:11.462Z,1328
2017-09-29T14:09:20.431Z,1328
2017-09-29T14:10:29.727Z,1324
2017-09-29T14:11:38.699Z,1280
2017-09-29T14:12:47.978Z,1280
2017-09-29T14:13:56.971Z,1244
2017-09-29T14:15:05.640Z,1240
2017-09-29T14:16:14.638Z,1224
2017-09-29T14:17:23.635Z,1204
2017-09-29T14:18:32.606Z,1184
2017-09-29T14:19:41.366Z,1160
2017-09-29T14:20:50.690Z,1144
2017-09-29T14:21:59.419Z,1124
2017-09-29T14:23:08.413Z,1120
2017-09-29T14:24:18.034Z,1120
2017-09-29T14:25:27.554Z,1120
2017-09-29T14:26:36.531Z,1120
2017-09-29T14:27:45.206Z,1104
2017-09-29T14:28:54.169Z,1092
2017-09-29T14:30:03.475Z,1044
2017-09-29T14:31:13.424Z,980
2017-09-29T14:32:23.465Z,888
2017-09-29T14:33:32.731Z,788
2017-09-29T14:34:42.011Z,680
2017-09-29T14:35:52.234Z,592
2017-09-29T14:37:02.141Z,524
2017-09-29T14:38:10.922Z,488
2017-09-29T14:39:19.610Z,492
2017-09-29T14:40:28.671Z,544
2017-09-29T14:41:37.964Z,620
2017-09-29T14:42:47.101Z,680
2017-09-29T14:43:56.168Z,784
2017-09-29T14:45:05.148Z,932
2017-09-29T14:46:14.810Z,1080
2017-09-29T14:47:23.828Z,1168
2017-09-29T14:48:33.613Z,1180
2017-09-29T14:49:43.124Z,1136
2017-09-29T14:50:52.229Z,1140
2017-09-29T14:52:01.095Z,1116
2017-09-29T14:53:10.489Z,1088
2017-09-29T14:54:19.889Z,1092
2017-09-29T14:55:29.179Z,1144
2017-09-29T14:56:38.153Z,1212
2017-09-29T14:57:47.467Z,1344
2017-09-29T14:58:56.734Z,1508
2017-09-29T15:00:05.428Z,1544
2017-09-29T15:01:14.708Z,1592
2017-09-29T15:02:23.709Z,1548
2017-09-29T15:03:32.999Z,1420
2017-09-29T15:04:41.671Z,1316
2017-09-29T15:05:50.866Z,1244
2017-09-29T15:06:59.906Z,1212
2017-09-29T15:08:09.598Z,1180
2017-09-29T15:09:18.995Z,1172
2017-09-29T15:10:28.330Z,1124
2017-09-29T15:11:37.413Z,1112
2017-09-29T15:12:46.388Z,1136
2017-09-29T15:13:55.354Z,1124
2017-09-29T15:15:04.639Z,1104
2017-09-29T15:16:14.939Z,1080
2017-09-29T15:17:24.233Z,1036
2017-09-29T15:18:33.201Z,1024
2017-09-29T15:19:42.487Z,1000
2017-09-29T15:20:51.771Z,976
2017-09-29T15:22:00.493Z,952
2017-09-29T15:23:09.677Z,928
2017-09-29T15:24:19.044Z,900
2017-09-29T15:25:28.634Z,880
2017-09-29T15:26:38.223Z,852
2017-09-29T15:27:47.540Z,828
2017-09-29T15:28:56.234Z,804
2017-09-29T15:30:06.137Z,780
2017-09-29T15:31:16.531Z,772
2017-09-29T15:32:26.092Z,768
2017-09-29T15:33:35.369Z,772
2017-09-29T15:34:44.667Z,764
2017-09-29T15:35:53.974Z,740
2017-09-29T15:37:03.021Z,716
2017-09-29T15:38:12.427Z,688
2017-09-29T15:39:21.709Z,660
2017-09-29T15:40:31.053Z,632
2017-09-29T15:41:41.092Z,624
2017-09-29T15:42:50.212Z,612
2017-09-29T15:43:59.363Z,588
2017-09-29T15:45:09.035Z,568
2017-09-29T15:46:18.257Z,548
2017-09-29T15:47:27.900Z,540
2017-09-29T15:48:36.557Z,536
2017-09-29T15:49:45.527Z,528
2017-09-29T15:50:54.537Z,536
2017-09-29T15:52:04.152Z,544
2017-09-29T15:53:12.839Z,560
2017-09-29T15:54:21.504Z,564
2017-09-29T15:55:30.810Z,564
2017-09-29T15:56:39.768Z,564
2017-09-29T15:57:49.096Z,560
2017-09-29T15:58:58.399Z,560
2017-09-29T16:00:07.717Z,560